createdAt,value
2023-03-11T00:00:47.085Z,98754.03
2023-03-11T00:03:28.127Z,98759.09
2023-03-11T00:06:00.019Z,98757.19
2023-03-11T00:08:50.016Z,98760.97
2023-03-11T00:11:27.561Z,98749.16
2023-03-11T00:14:01.931Z,98756.13
2023-03-11T00:16:49.884Z,98772.38
2023-03-11T00:19:34.161Z,98759.59
2023-03-11T00:22:06.748Z,98756.78
2023-03-11T00:25:00.621Z,98784.53
2023-03-11T00:27:33.437Z,98788.66
2023-03-11T00:30:13.427Z,98796.22
2023-03-11T00:35:49.791Z,98797.69
2023-03-11T00:38:23.159Z,98786.16
2023-03-11T00:41:04.484Z,98807.97
2023-03-11T00:43:36.501Z,98804.50
2023-03-11T00:46:13.305Z,98810.50
2023-03-11T00:48:52.912Z,98815.34
2023-03-11T00:51:28.691Z,98818.97
2023-03-11T00:54:12.473Z,98822.75
2023-03-11T00:56:55.600Z,98809.94
2023-03-11T00:59:30.495Z,98816.25
2023-03-11T01:02:03.927Z,98804.78
2023-03-11T01:04:40.836Z,98776.19
2023-03-11T01:07:21.793Z,98815.50
2023-03-11T01:10:00.310Z,98815.94
2023-03-11T01:12:45.684Z,98835.03
2023-03-11T01:15:27.182Z,98833.78
2023-03-11T01:18:10.343Z,98829.03
2023-03-11T01:20:44.157Z,98784.81
2023-03-11T01:23:17.791Z,98818.94
2023-03-11T01:26:01.075Z,98831.22
2023-03-11T01:28:50.207Z,98825.56
2023-03-11T01:31:28.521Z,98823.69
2023-03-11T01:34:15.169Z,98821.03
2023-03-11T01:36:58.292Z,98824.03
2023-03-11T01:39:36.429Z,98824.03
2023-03-11T01:42:14.345Z,98817.41
2023-03-11T01:44:56.575Z,98823.56
2023-03-11T01:47:49.905Z,98804.59
2023-03-11T01:50:24.430Z,98802.25
2023-03-11T01:53:03.029Z,98818.81
2023-03-11T01:55:37.543Z,98819.91
2023-03-11T01:58:24.076Z,98824.97
2023-03-11T02:01:04.420Z,98817.41
2023-03-11T02:03:52.684Z,98818.66
2023-03-11T02:06:32.095Z,98811.28
2023-03-11T02:09:18.885Z,98822.16
2023-03-11T02:12:07.295Z,98815.84
2023-03-11T02:14:59.069Z,98796.91
2023-03-11T02:17:37.044Z,98810.78
2023-03-11T02:20:24.035Z,98808.41
2023-03-11T02:23:10.299Z,98771.03
2023-03-11T02:25:52.630Z,98809.53
2023-03-11T02:28:44.470Z,98805.56
2023-03-11T02:31:29.769Z,98819.16
2023-03-11T02:34:09.581Z,98811.53
2023-03-11T02:39:43.069Z,98817.22
2023-03-11T02:42:22.320Z,98811.69
2023-03-11T02:45:17.146Z,98816.44
2023-03-11T02:48:01.835Z,98796.88
2023-03-11T02:53:34.735Z,98792.75
2023-03-11T02:56:12.225Z,98825.13
2023-03-11T02:58:49.922Z,98827.78
2023-03-11T03:01:33.198Z,98812.47
2023-03-11T03:04:07.878Z,98816.78
2023-03-11T03:06:42.584Z,98840.13
2023-03-11T03:09:21.204Z,98835.22
2023-03-11T03:12:01.825Z,98840.78
2023-03-11T03:14:42.059Z,98844.25
2023-03-11T03:17:28.196Z,98847.88
2023-03-11T03:20:06.063Z,98851.81
2023-03-11T03:22:42.556Z,98863.00
2023-03-11T03:25:22.367Z,98850.88
2023-03-11T03:27:55.255Z,98838.72
2023-03-11T03:30:41.955Z,98842.03
2023-03-11T03:33:36.319Z,98858.44
2023-03-11T03:36:22.421Z,98853.88
2023-03-11T03:39:30.513Z,98862.25
2023-03-11T03:42:04.236Z,98868.06
2023-03-11T03:44:41.654Z,98857.16
2023-03-11T03:47:19.032Z,98880.69
2023-03-11T03:50:18.222Z,98883.88
2023-03-11T03:52:57.409Z,98885.75
2023-03-11T03:55:34.211Z,98870.44
2023-03-11T03:58:08.956Z,98856.22
2023-03-11T04:00:57.283Z,98887.97
2023-03-11T04:03:52.847Z,98878.94
2023-03-11T04:06:33.052Z,98892.69
2023-03-11T04:09:20.171Z,98892.38
2023-03-11T04:11:55.394Z,98870.13
2023-03-11T04:14:30.276Z,98870.13
2023-03-11T04:17:22.489Z,98874.53
2023-03-11T04:20:04.013Z,98898.84
2023-03-11T04:22:47.235Z,98901.72
2023-03-11T04:25:23.732Z,98903.28
2023-03-11T04:28:01.392Z,98860.31
2023-03-11T04:30:47.450Z,98903.44
2023-03-11T04:33:26.113Z,98885.28
2023-03-11T04:36:05.642Z,98897.78
2023-03-11T04:38:41.868Z,98887.03
2023-03-11T04:41:22.579Z,98889.06
2023-03-11T04:43:58.647Z,98868.25
2023-03-11T04:46:33.257Z,98895.72
2023-03-11T04:49:12.417Z,98858.94
2023-03-11T04:51:47.865Z,98872.81
2023-03-11T04:54:27.573Z,98855.91
2023-03-11T04:57:08.130Z,98853.22
2023-03-11T04:59:44.884Z,98862.25
2023-03-11T05:02:18.053Z,98855.47
2023-03-11T05:05:02.420Z,98855.59
2023-03-11T05:07:35.328Z,98858.94
2023-03-11T05:10:40.873Z,98863.19
2023-03-11T05:13:21.333Z,98883.53
2023-03-11T05:15:59.631Z,98879.13
2023-03-11T05:18:34.708Z,98881.59
2023-03-11T05:21:12.714Z,98895.44
2023-03-11T05:23:50.748Z,98888.84
2023-03-11T05:26:29.576Z,98899.41
2023-03-11T05:29:08.280Z,98900.81
2023-03-11T05:31:42.108Z,98913.97
2023-03-11T05:34:18.149Z,98911.91
2023-03-11T05:36:58.196Z,98910.19
2023-03-11T05:39:59.860Z,98914.78
2023-03-11T05:42:44.433Z,98890.31
2023-03-11T05:45:40.128Z,98914.50
2023-03-11T05:48:26.293Z,98919.72
2023-03-11T05:50:58.282Z,98922.25
2023-03-11T05:53:39.254Z,98931.75
2023-03-11T05:56:28.691Z,98924.78
2023-03-11T05:59:05.341Z,98930.47
2023-03-11T06:01:46.214Z,98927.97
2023-03-11T06:04:28.962Z,98956.75
2023-03-11T06:07:05.863Z,98947.88
2023-03-11T06:09:51.600Z,98963.81
2023-03-11T06:12:22.644Z,98962.72
2023-03-11T06:15:22.775Z,98984.53
2023-03-11T06:17:56.644Z,98980.88
2023-03-11T06:20:30.873Z,98995.44
2023-03-11T06:23:10.812Z,98999.69
2023-03-11T06:25:50.049Z,98978.78
2023-03-11T06:28:23.602Z,98990.66
2023-03-11T06:31:02.446Z,98986.84
2023-03-11T06:33:45.159Z,98987.81
2023-03-11T06:36:22.393Z,98987.28
2023-03-11T06:39:00.975Z,98973.22
2023-03-11T06:41:46.452Z,98987.44
2023-03-11T06:44:20.693Z,98994.41
2023-03-11T06:47:18.184Z,98987.94
2023-03-11T06:49:57.709Z,98981.59
2023-03-11T06:52:28.847Z,98971.81
2023-03-11T06:55:06.963Z,98964.03
2023-03-11T06:57:40.650Z,98991.81
2023-03-11T07:00:23.445Z,98993.72
2023-03-11T07:03:04.276Z,99004.78
2023-03-11T07:05:38.696Z,98997.84
2023-03-11T07:08:15.028Z,98988.22
2023-03-11T07:10:50.632Z,98977.94
2023-03-11T07:13:32.634Z,99002.25
2023-03-11T07:16:17.171Z,98994.19
2023-03-11T07:19:06.438Z,98999.56
2023-03-11T07:21:46.420Z,99008.84
2023-03-11T07:24:21.099Z,99000.81
2023-03-11T07:27:08.767Z,98973.94
2023-03-11T07:29:49.007Z,99012.50
2023-03-11T07:32:27.202Z,99017.84
2023-03-11T07:35:06.157Z,99011.84
2023-03-11T07:37:40.968Z,99017.81
2023-03-11T07:40:31.277Z,99045.81
2023-03-11T07:46:10.052Z,99034.13
2023-03-11T07:48:50.241Z,99027.63
2023-03-11T07:51:43.751Z,99025.44
2023-03-11T07:54:23.429Z,99016.44
2023-03-11T07:57:03.208Z,98996.22
2023-03-11T07:59:40.726Z,99016.97
2023-03-11T08:02:16.472Z,99034.44
2023-03-11T08:04:57.255Z,99049.06
2023-03-11T08:07:47.322Z,99066.09
2023-03-11T08:10:21.525Z,99084.47
2023-03-11T08:12:59.739Z,99064.38
2023-03-11T08:15:31.974Z,99087.88
2023-03-11T08:18:25.392Z,99110.63
2023-03-11T08:21:05.063Z,99109.16
2023-03-11T08:24:03.388Z,99098.09
2023-03-11T08:26:45.661Z,99118.00
2023-03-11T08:29:26.870Z,99150.00
2023-03-11T08:32:11.352Z,99149.22
2023-03-11T08:34:49.071Z,99171.03
2023-03-11T08:37:21.015Z,99110.53
2023-03-11T08:39:58.223Z,99168.72
2023-03-11T08:42:32.374Z,99184.88
2023-03-11T08:45:09.920Z,99180.19
2023-03-11T08:47:46.957Z,99179.75
2023-03-11T08:50:25.426Z,99197.53
2023-03-11T08:53:00.649Z,99201.41
2023-03-11T08:55:44.898Z,99212.78
2023-03-11T08:58:18.111Z,99252.38
2023-03-11T09:00:55.909Z,99269.19
2023-03-11T09:03:33.667Z,99263.50
2023-03-11T09:06:16.500Z,99267.03
2023-03-11T09:09:04.479Z,99285.19
2023-03-11T09:11:47.620Z,99259.34
2023-03-11T09:14:27.926Z,99292.38
2023-03-11T09:17:01.734Z,99275.88
2023-03-11T09:19:38.405Z,99324.16
2023-03-11T09:22:14.369Z,99306.81
2023-03-11T09:24:57.516Z,99282.44
2023-03-11T09:27:33.312Z,99300.63
2023-03-11T09:30:09.918Z,99326.09
2023-03-11T09:32:47.724Z,99313.25
2023-03-11T09:35:23.819Z,99332.94
2023-03-11T09:38:01.156Z,99352.94
2023-03-11T09:40:50.131Z,99343.13
2023-03-11T09:43:45.952Z,99354.41
2023-03-11T09:46:55.814Z,99350.22
2023-03-11T09:49:40.658Z,99359.81
2023-03-11T09:52:32.423Z,99370.44
2023-03-11T09:55:27.149Z,99383.25
2023-03-11T09:58:03.094Z,99375.09
2023-03-11T10:00:59.285Z,99368.78
2023-03-11T10:03:40.998Z,99397.78
2023-03-11T10:06:32.966Z,99411.88
2023-03-11T10:09:26.781Z,99411.09
2023-03-11T10:12:23.349Z,99424.97
2023-03-11T10:15:26.257Z,99424.94
2023-03-11T10:18:40.879Z,99412.72
2023-03-11T10:21:33.912Z,99429.22
2023-03-11T10:24:46.333Z,99428.13
2023-03-11T10:27:31.215Z,99438.25
2023-03-11T10:30:13.472Z,99427.88
2023-03-11T10:33:00.390Z,99429.19
2023-03-11T10:35:45.991Z,99440.09
2023-03-11T10:38:38.744Z,99441.41
2023-03-11T10:41:21.296Z,99436.91
2023-03-11T10:44:04.461Z,99458.22
2023-03-11T10:46:41.995Z,99408.44
2023-03-11T10:49:27.651Z,99469.34
2023-03-11T10:52:29.904Z,99447.25
2023-03-11T10:55:11.467Z,99468.00
2023-03-11T10:57:51.671Z,99457.88
2023-03-11T11:00:43.066Z,99457.88
2023-03-11T11:03:48.172Z,99453.66
2023-03-11T11:06:49.465Z,99457.91
2023-03-11T11:09:34.934Z,99430.78
2023-03-11T11:12:21.163Z,99446.75
2023-03-11T11:15:15.489Z,99442.50
2023-03-11T11:17:59.733Z,99394.59
2023-03-11T11:20:41.420Z,99454.19
2023-03-11T11:23:32.939Z,99458.69
2023-03-11T11:26:23.979Z,99460.00
2023-03-11T11:29:25.228Z,99459.50
2023-03-11T11:32:25.228Z,99466.94
2023-03-11T11:35:08.235Z,99449.41
2023-03-11T11:37:53.486Z,99424.63
2023-03-11T11:43:34.210Z,99454.41
2023-03-11T11:46:17.165Z,99465.06
2023-03-11T11:49:06.147Z,99456.78
2023-03-11T11:51:46.547Z,99434.97
2023-03-11T11:54:30.918Z,99451.47
2023-03-11T11:57:06.905Z,99435.22
2023-03-11T11:59:41.604Z,99458.88
2023-03-11T12:03:01.938Z,99455.38
2023-03-11T12:05:35.160Z,99448.13
2023-03-11T12:08:18.573Z,99447.91
2023-03-11T12:10:59.113Z,99444.16
2023-03-11T12:14:13.773Z,99439.78
2023-03-11T12:16:58.728Z,99422.94
2023-03-11T12:19:49.577Z,99428.56
2023-03-11T12:22:54.442Z,99429.09
2023-03-11T12:25:49.755Z,99435.41
2023-03-11T12:28:42.077Z,99417.06
2023-03-11T12:31:22.544Z,99445.97
2023-03-11T12:34:05.635Z,99428.13
2023-03-11T12:36:39.344Z,99444.03
2023-03-11T12:39:25.736Z,99441.28
2023-03-11T12:42:29.420Z,99438.91
2023-03-11T12:45:45.071Z,99444.91
2023-03-11T12:48:43.584Z,99443.00
2023-03-11T12:51:55.062Z,99451.44
2023-03-11T12:54:38.894Z,99458.06
2023-03-11T12:57:31.828Z,99460.56
2023-03-11T13:00:36.502Z,99476.38
2023-03-11T13:03:58.640Z,99483.28
2023-03-11T13:07:18.476Z,99480.94
2023-03-11T13:10:15.438Z,99483.03
2023-03-11T13:12:52.238Z,99488.94
2023-03-11T13:15:48.069Z,99495.34
2023-03-11T13:18:32.844Z,99485.47
2023-03-11T13:21:08.909Z,99508.41
2023-03-11T13:23:48.937Z,99470.16
2023-03-11T13:26:41.994Z,99502.03
2023-03-11T13:29:49.410Z,99515.94
2023-03-11T13:33:14.912Z,99517.09
2023-03-11T13:36:13.307Z,99519.75
2023-03-11T13:39:25.276Z,99524.06
2023-03-11T13:42:07.411Z,99528.25
2023-03-11T13:44:55.154Z,99513.97
2023-03-11T13:47:40.542Z,99540.53
2023-03-11T13:50:33.787Z,99527.78
2023-03-11T13:53:11.855Z,99549.66
2023-03-11T13:56:03.377Z,99540.09
2023-03-11T13:58:49.344Z,99548.09
2023-03-11T14:01:26.048Z,99553.97
2023-03-11T14:04:00.942Z,99535.34
2023-03-11T14:06:35.782Z,99559.91
2023-03-11T14:09:36.708Z,99545.53
2023-03-11T14:12:24.034Z,99553.78
2023-03-11T14:15:20.859Z,99553.81
2023-03-11T14:18:32.882Z,99508.91
2023-03-11T14:21:21.522Z,99532.28
2023-03-11T14:24:01.418Z,99539.47
2023-03-11T14:26:38.111Z,99512.59
2023-03-11T14:29:14.913Z,99556.25
2023-03-11T14:31:51.914Z,99547.47
2023-03-11T14:34:25.733Z,99548.78
2023-03-11T14:36:58.959Z,99551.22
2023-03-11T14:39:33.660Z,99552.28
2023-03-11T14:42:10.521Z,99525.94
2023-03-11T14:44:45.539Z,99550.41
2023-03-11T14:47:24.413Z,99540.81
2023-03-11T14:49:57.890Z,99517.44
2023-03-11T14:52:37.787Z,99554.66
2023-03-11T14:55:18.340Z,99563.16
2023-03-11T14:57:55.730Z,99559.94
2023-03-11T15:00:29.502Z,99552.47
2023-03-11T15:03:25.944Z,99554.03
2023-03-11T15:06:12.147Z,99548.19
2023-03-11T15:09:12.688Z,99560.41
2023-03-11T15:11:56.030Z,99558.88
2023-03-11T15:14:28.517Z,99533.34
2023-03-11T15:17:33.093Z,99575.13
2023-03-11T15:20:35.101Z,99580.75
2023-03-11T15:23:25.893Z,99578.63
2023-03-11T15:26:06.638Z,99580.81
2023-03-11T15:28:52.055Z,99551.03
2023-03-11T15:31:50.494Z,99590.16
2023-03-11T15:34:38.835Z,99590.97
2023-03-11T15:37:27.176Z,99597.41
2023-03-11T15:40:19.440Z,99598.72
2023-03-11T15:43:36.935Z,99609.38
2023-03-11T15:46:13.413Z,99609.13
2023-03-11T15:48:58.495Z,99606.47
2023-03-11T15:52:07.302Z,99566.00
2023-03-11T15:54:54.486Z,99601.69
2023-03-11T15:57:35.844Z,99620.34
2023-03-11T16:00:29.112Z,99626.19
2023-03-11T16:03:05.413Z,99619.00
2023-03-11T16:05:45.310Z,99619.03
2023-03-11T16:08:22.655Z,99637.13
2023-03-11T16:11:06.959Z,99628.63
2023-03-11T16:13:49.028Z,99653.13
2023-03-11T16:16:39.168Z,99659.53
2023-03-11T16:19:19.212Z,99659.25
2023-03-11T16:22:01.964Z,99653.94
2023-03-11T16:24:46.494Z,99664.06
2023-03-11T16:27:38.202Z,99674.19
2023-03-11T16:30:20.292Z,99677.38
2023-03-11T16:33:05.124Z,99680.03
2023-03-11T16:35:48.048Z,99690.13
2023-03-11T16:38:24.750Z,99678.66
2023-03-11T16:41:08.072Z,99701.31
2023-03-11T16:43:53.679Z,99709.06
2023-03-11T16:46:27.329Z,99699.72
2023-03-11T16:49:08.807Z,99704.00
2023-03-11T16:51:52.449Z,99712.25
2023-03-11T16:54:35.619Z,99710.88
2023-03-11T16:57:23.633Z,99735.91
2023-03-11T17:00:08.973Z,99716.44
2023-03-11T17:02:42.224Z,99717.50
2023-03-11T17:05:25.886Z,99754.03
2023-03-11T17:08:09.739Z,99763.06
2023-03-11T17:10:55.323Z,99643.78
2023-03-11T17:13:31.999Z,99769.19
2023-03-11T17:16:15.077Z,99709.94
2023-03-11T17:19:02.510Z,99787.31
2023-03-11T17:21:39.409Z,99789.69
2023-03-11T17:24:26.488Z,99782.19
2023-03-11T17:27:02.199Z,99806.47
2023-03-11T17:29:42.762Z,99809.97
2023-03-11T17:32:26.801Z,99821.63
2023-03-11T17:35:03.990Z,99802.34
2023-03-11T17:37:40.932Z,99833.34
2023-03-11T17:40:24.242Z,99830.00
2023-03-11T17:43:00.296Z,99784.47
2023-03-11T17:45:42.920Z,99836.78
2023-03-11T17:48:35.739Z,99826.81
2023-03-11T17:51:12.952Z,99821.06
2023-03-11T17:53:50.858Z,99868.06
2023-03-11T17:56:31.872Z,99832.28
2023-03-11T17:59:07.900Z,99870.47
2023-03-11T18:01:51.339Z,99878.19
2023-03-11T18:04:36.449Z,99881.59
2023-03-11T18:07:15.042Z,99888.75
2023-03-11T18:09:54.519Z,99863.50
2023-03-11T18:12:26.579Z,99833.56
2023-03-11T18:14:57.527Z,99903.75
2023-03-11T18:17:34.678Z,99900.31
2023-03-11T18:20:19.319Z,99907.50
2023-03-11T18:22:50.088Z,99853.47
2023-03-11T18:25:29.073Z,99879.78
2023-03-11T18:28:08.994Z,99921.41
2023-03-11T18:30:44.589Z,99925.69
2023-03-11T18:33:19.260Z,99927.78
2023-03-11T18:36:03.684Z,99930.50
2023-03-11T18:38:41.638Z,99933.31
2023-03-11T18:41:18.437Z,99933.94
2023-03-11T18:43:50.762Z,99948.66
2023-03-11T18:46:23.341Z,99957.00
2023-03-11T18:48:58.183Z,99973.19
2023-03-11T18:51:51.881Z,99971.78
2023-03-11T18:54:28.559Z,99943.78
2023-03-11T18:57:02.565Z,99974.78
2023-03-11T18:59:50.188Z,99982.41
2023-03-11T19:02:28.455Z,99962.00
2023-03-11T19:05:12.385Z,99968.53
2023-03-11T19:07:54.610Z,99991.16
2023-03-11T19:10:48.354Z,99977.47
2023-03-11T19:13:45.862Z,100003.69
2023-03-11T19:16:25.274Z,100008.31
2023-03-11T19:19:06.412Z,100020.13
2023-03-11T19:21:52.452Z,100002.91
2023-03-11T19:27:48.353Z,100030.25
2023-03-11T19:30:33.126Z,100007.56
2023-03-11T19:33:25.854Z,100045.53
2023-03-11T19:36:24.106Z,100037.66
2023-03-11T19:39:03.418Z,100059.13
2023-03-11T19:42:10.496Z,100056.72
2023-03-11T19:44:48.469Z,100066.59
2023-03-11T19:47:23.228Z,100069.75
2023-03-11T19:50:01.256Z,100042.41
2023-03-11T19:52:42.758Z,100054.66
2023-03-11T19:55:26.719Z,100081.59
2023-03-11T19:58:16.844Z,100062.06
2023-03-11T20:01:04.823Z,100091.56
2023-03-11T20:03:53.314Z,99974.97
2023-03-11T20:06:28.675Z,100092.88
2023-03-11T20:09:07.395Z,100090.47
2023-03-11T20:11:50.037Z,100097.56
2023-03-11T20:14:31.521Z,100073.09
2023-03-11T20:17:05.690Z,100112.81
2023-03-11T20:19:44.805Z,100109.13
2023-03-11T20:22:21.306Z,100084.81
2023-03-11T20:25:07.451Z,100127.00
2023-03-11T20:28:05.402Z,100126.19
2023-03-11T20:30:52.266Z,100136.66
2023-03-11T20:33:56.280Z,100144.94
2023-03-11T20:36:33.107Z,100145.56
2023-03-11T20:39:23.165Z,100141.88
2023-03-11T20:42:10.107Z,100142.09
2023-03-11T20:44:59.632Z,100150.69
2023-03-11T20:47:58.042Z,100128.88
2023-03-11T20:50:32.608Z,100168.25
2023-03-11T20:56:17.980Z,100190.22
2023-03-11T20:58:56.580Z,100200.59
2023-03-11T21:01:33.775Z,100193.56
2023-03-11T21:04:21.127Z,100195.00
2023-03-11T21:07:00.001Z,100201.63
2023-03-11T21:09:36.506Z,100181.25
2023-03-11T21:12:25.168Z,100216.03
2023-03-11T21:15:06.082Z,100221.00
2023-03-11T21:17:45.043Z,100221.00
2023-03-11T21:20:30.413Z,100225.63
2023-03-11T21:23:13.723Z,100172.53
2023-03-11T21:25:55.932Z,100221.41
2023-03-11T21:28:38.114Z,100217.50
2023-03-11T21:31:18.146Z,100223.81
2023-03-11T21:34:02.044Z,100199.06
2023-03-11T21:36:40.276Z,100222.47
2023-03-11T21:39:26.992Z,100229.94
2023-03-11T21:42:20.557Z,100229.13
2023-03-11T21:45:06.923Z,100220.16
2023-03-11T21:47:53.086Z,100233.97
2023-03-11T21:50:38.330Z,100209.88
2023-03-11T21:53:20.700Z,100225.19
2023-03-11T21:56:08.365Z,100239.97
2023-03-11T21:58:50.845Z,100209.78
2023-03-11T22:01:34.901Z,100229.97
2023-03-11T22:04:16.089Z,100246.56
2023-03-11T22:06:58.631Z,100253.69
2023-03-11T22:09:41.020Z,100227.31
2023-03-11T22:12:26.946Z,100219.13
2023-03-11T22:15:13.775Z,100249.66
2023-03-11T22:18:08.558Z,100256.00
2023-03-11T22:20:45.337Z,100259.56
2023-03-11T22:23:30.300Z,100265.94
2023-03-11T22:26:15.645Z,100246.31
2023-03-11T22:28:53.813Z,100273.88
2023-03-11T22:31:26.302Z,100268.66
2023-03-11T22:34:04.189Z,100252.56
2023-03-11T22:36:42.527Z,100225.59
2023-03-11T22:39:20.067Z,100237.44
2023-03-11T22:42:03.978Z,100256.38
2023-03-11T22:44:41.333Z,100263.84
2023-03-11T22:47:21.766Z,100270.88
2023-03-11T22:50:00.710Z,100277.78
2023-03-11T22:52:41.921Z,100271.81
2023-03-11T22:55:23.624Z,100264.88
2023-03-11T22:58:05.497Z,100266.84
2023-03-11T23:00:50.181Z,100259.22
2023-03-11T23:03:35.478Z,100265.13
2023-03-11T23:06:14.833Z,100260.38
2023-03-11T23:08:50.589Z,100273.16
2023-03-11T23:11:27.991Z,100265.22
2023-03-11T23:14:20.564Z,100267.31
2023-03-11T23:17:10.632Z,100270.44
2023-03-11T23:19:55.559Z,100267.41
2023-03-11T23:22:44.302Z,100252.66
2023-03-11T23:25:25.369Z,100278.69
2023-03-11T23:28:08.966Z,100278.81
2023-03-11T23:30:52.736Z,100275.19
2023-03-11T23:33:35.042Z,100273.03
2023-03-11T23:36:20.190Z,100294.16
2023-03-11T23:38:56.948Z,100281.47
2023-03-11T23:41:52.009Z,100299.06
2023-03-11T23:44:30.384Z,100285.59
2023-03-11T23:47:10.132Z,100296.19
2023-03-11T23:49:53.544Z,100293.63
2023-03-11T23:52:31.759Z,100253.59
2023-03-11T23:55:14.318Z,100309.63
2023-03-11T23:57:49.912Z,100291.63
